Record high temperature 42.2°C Record low temperature -14.6°C Record high gust 76.2 km/h Record high average 96.8 km/h Record daily rain 63.7 mm Record low windchill -17.5°C Record high barometer 1092.0 hPa Record low barometer 893.0 hPa
Daily high pressure 967.0 hPa Daily low pressure 960.0 hPa Daily low windchill 9.6°C Daily high heat index 29.6°C Daily high gust speed 17.6 kmh SSE Daily high average speed 10.4 kmh SE

This page is updated from recent data collected by a WMR200 weather station Use the Reload or Refresh facility on your browser to retrieve the latest data.

Status report of weather station: Bienvenue sur la Station Météo de Godarville



Weather report/warning/Metars

Alexandroupoli Airport , Greece (LGAL) 40-51N 025-55E 3M
Jul 15, 2024 - 12:20 PM EDT / 2024.07.15 1620 UTC
Wind: from the ENE (070 degrees) at 17 MPH (15 KT):0
Visibility: greater than 7 mile(s):0
Temperature: 95 F (35 C)
Dew Point: 51 F (11 C)
Relative Humidity: 23%
Pressure (altimeter): 29.80 in. Hg (1009 hPa)
ob: LGAL 151620Z 07015KT CAVOK 35/11 Q1009
cycle: 16

Charleroi / Gosselies, Belgium (EBCI) 50-28N 004-27E 192M
Jul 15, 2024 - 12:20 PM EDT / 2024.07.15 1620 UTC
Wind: Variable at 2 MPH (2 KT):0
Visibility: greater than 7 mile(s):0
Temperature: 75 F (24 C)
Dew Point: 57 F (14 C)
Relative Humidity: 53%
Pressure (altimeter): 29.77 in. Hg (1008 hPa)
ob: EBCI 151620Z VRB02KT CAVOK 24/14 Q1008 NOSIG
cycle: 16

Bruxelles National, Belgium (EBBR) 50-54N 004-32E 58M
Jul 15, 2024 - 12:20 PM EDT / 2024.07.15 1620 UTC
Wind: from the E (080 degrees) at 3 MPH (3 KT) (direction variable):0
Visibility: greater than 7 mile(s):0
Weather: light rain showers
Temperature: 73 F (23 C)
Dew Point: 60 F (16 C)
Relative Humidity: 64%
Pressure (altimeter): 29.77 in. Hg (1008 hPa)
ob: EBBR 151620Z 08003KT 050V120 9999 -SHRA NSC 23/16 Q1008 TEMPO 4000 SHRA
cycle: 16

Koksijde, Belgium (EBFN) 51-05N 002-39E 9M
Jul 15, 2024 - 12:43 PM EDT / 2024.07.15 1643 UTC
Wind: Variable at 2 MPH (2 KT):0
Visibility: greater than 7 mile(s):0
Sky conditions: mostly cloudy
Weather: light rain
Temperature: 64 F (18 C)
Dew Point: 60 F (16 C)
Relative Humidity: 88%
Pressure (altimeter): 29.74 in. Hg (1007 hPa)
ob: EBFN 151643Z AUTO VRB02KT 9999 -RA FEW040/// BKN081/// 18/16 Q1007 BLU
cycle: 16

Poznan, Poland (EPPO) 52-25N 016-50E 92M
Jul 15, 2024 - 12:30 PM EDT / 2024.07.15 1630 UTC
Wind: from the SSW (200 degrees) at 7 MPH (6 KT) (direction variable):0
Visibility: greater than 7 mile(s):0
Temperature: 84 F (29 C)
Dew Point: 55 F (13 C)
Relative Humidity: 37%
Pressure (altimeter): 29.91 in. Hg (1013 hPa)
ob: EPPO 151630Z 20006KT 100V230 CAVOK 29/13 Q1013 
cycle: 16



Coucher du Soleil:
21:49:28

Lever de Lune:
15:00:04 14/07/24

Coucher de Lune:
00:52:19 15/07/24

Premier Quartier 13 juillet 2024
Pleine Lune 21 juillet 2024
Dernier Quartier 28 juillet 2024
Nouvelle Lune 4 août 2024
Âge de lune : 8 jours,6 heures,13 minutes,59%
Les heures du jour possible étaient aujourd’hui 16:02



Use the RELOAD facility on your browser to retrieve the latest data.

Click here for a daily update of the averages/extremes to date for the month
Created by "Weather Display" software version 10.37P at this start time/date 15:56:46 13/07/2024